createdAt,value
2022-12-29T00:00:55.594Z,0.21
2022-12-29T00:01:55.557Z,0.25
2022-12-29T00:02:55.601Z,0.32
2022-12-29T00:03:55.634Z,0.46
2022-12-29T00:04:55.520Z,0.70
2022-12-29T00:05:55.491Z,0.84
2022-12-29T00:06:55.473Z,0.96
2022-12-29T00:07:55.474Z,1.08
2022-12-29T00:08:55.446Z,1.30
2022-12-29T00:09:55.461Z,1.56
2022-12-29T00:10:55.438Z,1.68
2022-12-29T00:11:55.407Z,1.70
2022-12-29T00:12:55.417Z,1.68
2022-12-29T00:13:55.429Z,1.68
2022-12-29T00:14:55.428Z,1.78
2022-12-29T00:15:55.372Z,1.91
2022-12-29T00:16:55.344Z,1.99
2022-12-29T00:17:55.419Z,2.02
2022-12-29T00:18:55.359Z,2.18
2022-12-29T00:19:55.312Z,2.26
2022-12-29T00:20:55.325Z,2.28
2022-12-29T00:21:55.283Z,2.28
2022-12-29T00:22:55.360Z,2.24
2022-12-29T00:23:55.284Z,2.17
2022-12-29T00:24:55.230Z,2.11
2022-12-29T00:25:55.231Z,2.06
2022-12-29T00:26:55.228Z,2.00
2022-12-29T00:27:55.211Z,1.94
2022-12-29T00:28:55.208Z,1.91
2022-12-29T00:29:55.215Z,1.89
2022-12-29T00:30:55.251Z,1.89
2022-12-29T00:31:55.171Z,1.91
2022-12-29T00:32:55.200Z,1.87
2022-12-29T00:33:55.164Z,1.87
2022-12-29T00:34:55.130Z,1.78
2022-12-29T00:35:55.100Z,1.74
2022-12-29T00:36:55.077Z,1.68
2022-12-29T00:37:55.066Z,1.70
2022-12-29T00:38:55.062Z,1.68
2022-12-29T00:39:55.084Z,1.68
2022-12-29T00:40:55.021Z,1.66
2022-12-29T00:41:55.018Z,1.60
2022-12-29T00:42:55.023Z,1.55
2022-12-29T00:43:55.000Z,1.49
2022-12-29T00:44:54.975Z,1.49
2022-12-29T00:45:54.965Z,1.45
2022-12-29T00:46:55.023Z,1.48
2022-12-29T00:47:55.007Z,1.45
2022-12-29T00:48:54.912Z,1.45
2022-12-29T00:49:54.931Z,1.40
2022-12-29T00:50:54.891Z,1.35
2022-12-29T00:51:54.910Z,1.31
2022-12-29T00:52:54.859Z,1.28
2022-12-29T00:53:54.857Z,1.24
2022-12-29T00:54:54.863Z,1.23
2022-12-29T00:55:54.841Z,1.19
2022-12-29T00:56:54.831Z,1.20
2022-12-29T00:57:54.812Z,1.23
2022-12-29T00:58:54.795Z,1.20
2022-12-29T00:59:54.815Z,1.16
2022-12-29T01:00:54.815Z,1.10
2022-12-29T01:01:54.903Z,1.10
2022-12-29T01:02:54.859Z,1.04
2022-12-29T01:04:00.121Z,1.05
2022-12-29T01:04:54.743Z,1.05
2022-12-29T01:05:54.708Z,1.06
2022-12-29T01:06:54.743Z,1.23
2022-12-29T01:07:54.698Z,1.38
2022-12-29T01:08:54.667Z,1.40
2022-12-29T01:09:54.656Z,1.40
2022-12-29T01:10:54.636Z,1.41
2022-12-29T01:11:54.624Z,1.56
2022-12-29T01:12:54.640Z,1.62
2022-12-29T01:13:54.644Z,1.71
2022-12-29T01:14:54.617Z,2.02
2022-12-29T01:15:54.597Z,2.44
2022-12-29T01:16:54.548Z,2.69
2022-12-29T01:17:54.541Z,3.00
2022-12-29T01:18:54.530Z,3.34
2022-12-29T01:19:54.527Z,3.47
2022-12-29T01:20:54.506Z,3.48
2022-12-29T01:21:54.496Z,3.53
2022-12-29T01:22:54.508Z,3.60
2022-12-29T01:23:54.495Z,3.42
2022-12-29T01:24:54.458Z,3.22
2022-12-29T01:25:54.429Z,3.14
2022-12-29T01:26:54.453Z,3.07
2022-12-29T01:27:54.415Z,2.97
2022-12-29T01:28:54.445Z,2.82
2022-12-29T01:29:54.392Z,2.75
2022-12-29T01:30:54.377Z,2.72
2022-12-29T01:31:54.386Z,2.82
2022-12-29T01:32:54.375Z,2.93
2022-12-29T01:33:54.335Z,2.98
2022-12-29T01:34:54.361Z,3.01
2022-12-29T01:35:54.307Z,3.00
2022-12-29T01:36:54.300Z,2.97
2022-12-29T01:37:54.275Z,2.93
2022-12-29T01:38:54.300Z,2.89
2022-12-29T01:39:54.272Z,2.82
2022-12-29T01:40:54.255Z,2.74
2022-12-29T01:41:54.234Z,2.64
2022-12-29T01:42:54.252Z,2.56
2022-12-29T01:43:54.206Z,2.54
2022-12-29T01:44:54.212Z,2.61
2022-12-29T01:45:54.251Z,2.62
2022-12-29T01:46:54.164Z,2.65
2022-12-29T01:47:54.144Z,2.62
2022-12-29T01:48:54.143Z,2.65
2022-12-29T01:49:54.116Z,2.64
2022-12-29T01:50:54.164Z,2.60
2022-12-29T01:51:54.095Z,2.57
2022-12-29T01:52:54.089Z,2.53
2022-12-29T01:53:54.070Z,2.50
2022-12-29T01:54:54.088Z,2.46
2022-12-29T01:55:54.067Z,2.39
2022-12-29T01:56:54.045Z,2.44
2022-12-29T01:57:54.046Z,2.46
2022-12-29T01:58:54.030Z,2.47
2022-12-29T01:59:54.015Z,2.44
2022-12-29T02:00:54.085Z,2.42
2022-12-29T02:01:54.114Z,2.38
2022-12-29T02:02:54.028Z,2.33
2022-12-29T02:03:53.947Z,2.26
2022-12-29T02:04:53.922Z,2.25
2022-12-29T02:05:53.913Z,2.26
2022-12-29T02:06:53.905Z,2.25
2022-12-29T02:07:53.909Z,2.22
2022-12-29T02:08:53.875Z,2.35
2022-12-29T02:09:53.857Z,2.46
2022-12-29T02:10:53.860Z,2.54
2022-12-29T02:11:53.855Z,2.65
2022-12-29T02:12:53.837Z,2.72
2022-12-29T02:13:53.818Z,2.71
2022-12-29T02:14:53.826Z,2.65
2022-12-29T02:15:53.789Z,2.61
2022-12-29T02:16:53.836Z,2.65
2022-12-29T02:17:53.747Z,2.68
2022-12-29T02:18:53.782Z,2.68
2022-12-29T02:19:53.736Z,2.65
2022-12-29T02:20:53.720Z,2.60
2022-12-29T02:21:53.739Z,2.60
2022-12-29T02:22:53.710Z,2.62
2022-12-29T02:23:53.719Z,2.62
2022-12-29T02:24:53.674Z,2.56
2022-12-29T02:25:53.663Z,2.62
2022-12-29T02:26:53.642Z,2.64
2022-12-29T02:27:53.643Z,2.61
2022-12-29T02:28:53.627Z,2.57
2022-12-29T02:29:53.595Z,2.54
2022-12-29T02:30:53.593Z,2.47
2022-12-29T02:31:53.607Z,2.42
2022-12-29T02:32:53.607Z,2.33
2022-12-29T02:33:53.571Z,2.25
2022-12-29T02:34:53.537Z,2.15
2022-12-29T02:35:53.540Z,2.13
2022-12-29T02:36:53.531Z,2.11
2022-12-29T02:37:53.520Z,2.10
2022-12-29T02:38:53.496Z,2.08
2022-12-29T02:39:53.465Z,2.08
2022-12-29T02:40:53.461Z,2.06
2022-12-29T02:41:53.436Z,2.13
2022-12-29T02:42:53.460Z,2.15
2022-12-29T02:43:53.413Z,2.18
2022-12-29T02:44:53.426Z,2.24
2022-12-29T02:45:53.433Z,2.28
2022-12-29T02:46:53.384Z,2.35
2022-12-29T02:47:53.386Z,2.38
2022-12-29T02:48:53.371Z,2.36
2022-12-29T02:49:53.337Z,2.35
2022-12-29T02:50:53.357Z,2.35
2022-12-29T02:51:53.340Z,2.35
2022-12-29T02:52:53.325Z,2.35
2022-12-29T02:53:53.314Z,2.31
2022-12-29T02:54:53.277Z,2.29
2022-12-29T02:55:53.260Z,2.43
2022-12-29T02:56:53.339Z,2.50
2022-12-29T02:57:53.233Z,2.54
2022-12-29T02:58:53.234Z,2.75
2022-12-29T02:59:53.202Z,2.93
2022-12-29T03:00:53.271Z,3.29
2022-12-29T03:01:53.421Z,3.60
2022-12-29T03:02:53.310Z,3.69
2022-12-29T03:03:53.148Z,3.74
2022-12-29T03:04:53.142Z,3.81
2022-12-29T03:05:53.122Z,3.84
2022-12-29T03:06:53.359Z,3.84
2022-12-29T03:07:53.102Z,3.81
2022-12-29T03:08:53.135Z,3.78
2022-12-29T03:09:53.073Z,3.70
2022-12-29T03:10:53.062Z,3.62
2022-12-29T03:11:53.040Z,3.55
2022-12-29T03:12:53.052Z,3.44
2022-12-29T03:13:53.060Z,3.31
2022-12-29T03:14:53.034Z,3.21
2022-12-29T03:15:52.996Z,3.04
2022-12-29T03:16:53.060Z,2.90
2022-12-29T03:17:52.974Z,2.80
2022-12-29T03:18:52.987Z,2.67
2022-12-29T03:19:52.946Z,2.56
2022-12-29T03:20:52.942Z,2.50
2022-12-29T03:21:52.920Z,2.43
2022-12-29T03:22:52.905Z,2.39
2022-12-29T03:23:52.910Z,2.36
2022-12-29T03:24:52.891Z,2.35
2022-12-29T03:25:52.866Z,2.33
2022-12-29T03:26:52.856Z,2.31
2022-12-29T03:27:52.830Z,2.26
2022-12-29T03:28:52.855Z,2.36
2022-12-29T03:29:52.841Z,2.54
2022-12-29T03:30:52.866Z,2.57
2022-12-29T03:31:52.789Z,2.54
2022-12-29T03:32:52.784Z,2.50
2022-12-29T03:33:52.763Z,2.44
2022-12-29T03:34:52.773Z,2.39
2022-12-29T03:35:52.756Z,2.38
2022-12-29T03:36:52.725Z,2.36
2022-12-29T03:37:52.713Z,2.38
2022-12-29T03:38:52.733Z,2.38
2022-12-29T03:39:52.695Z,2.38
2022-12-29T03:40:52.680Z,2.38
2022-12-29T03:41:52.650Z,2.35
2022-12-29T03:42:52.663Z,2.29
2022-12-29T03:43:52.707Z,2.25
2022-12-29T03:44:52.645Z,2.18
2022-12-29T03:45:52.606Z,2.20
2022-12-29T03:46:52.625Z,2.25
2022-12-29T03:47:52.567Z,2.24
2022-12-29T03:48:52.729Z,2.32
2022-12-29T03:49:52.563Z,2.47
2022-12-29T03:50:52.541Z,2.54
2022-12-29T03:51:52.551Z,2.72
2022-12-29T03:52:52.552Z,2.86
2022-12-29T03:53:52.566Z,2.95
2022-12-29T03:54:52.498Z,2.92
2022-12-29T03:55:52.473Z,2.89
2022-12-29T03:56:52.505Z,2.85
2022-12-29T03:57:52.460Z,2.80
2022-12-29T03:58:52.462Z,2.80
2022-12-29T03:59:52.422Z,2.79
2022-12-29T04:00:52.423Z,2.83
2022-12-29T04:01:52.583Z,2.87
2022-12-29T04:02:52.598Z,2.89
2022-12-29T04:03:52.498Z,2.86
2022-12-29T04:04:52.351Z,2.83
2022-12-29T04:05:52.333Z,2.79
2022-12-29T04:06:52.365Z,2.72
2022-12-29T04:07:52.364Z,2.67
2022-12-29T04:08:52.350Z,2.61
2022-12-29T04:09:52.300Z,2.57
2022-12-29T04:10:52.294Z,2.49
2022-12-29T04:11:52.253Z,2.42
2022-12-29T04:12:52.280Z,2.36
2022-12-29T04:13:52.290Z,2.33
2022-12-29T04:14:52.246Z,2.29
2022-12-29T04:15:52.294Z,2.26
2022-12-29T04:16:52.248Z,2.24
2022-12-29T04:17:52.189Z,2.24
2022-12-29T04:18:52.183Z,2.28
2022-12-29T04:19:52.162Z,2.29
2022-12-29T04:20:52.182Z,2.38
2022-12-29T04:21:52.142Z,2.47
2022-12-29T04:22:52.129Z,2.57
2022-12-29T04:23:52.109Z,2.62
2022-12-29T04:24:52.101Z,2.72
2022-12-29T04:25:52.113Z,2.75
2022-12-29T04:26:52.076Z,2.72
2022-12-29T04:27:52.045Z,2.71
2022-12-29T04:28:52.043Z,2.69
2022-12-29T04:29:52.020Z,2.86
2022-12-29T04:30:52.151Z,2.95
2022-12-29T04:31:52.004Z,2.93
2022-12-29T04:32:52.010Z,2.86
2022-12-29T04:33:51.981Z,2.79
2022-12-29T04:34:51.998Z,2.69
2022-12-29T04:35:51.943Z,2.62
2022-12-29T04:36:51.968Z,2.60
2022-12-29T04:37:51.928Z,2.56
2022-12-29T04:38:51.921Z,2.53
2022-12-29T04:39:51.933Z,2.49
2022-12-29T04:40:51.929Z,2.44
2022-12-29T04:41:51.872Z,2.42
2022-12-29T04:42:51.903Z,2.42
2022-12-29T04:43:51.843Z,2.42
2022-12-29T04:44:51.835Z,2.36
2022-12-29T04:45:51.817Z,2.38
2022-12-29T04:46:51.876Z,2.39
2022-12-29T04:47:51.791Z,2.39
2022-12-29T04:48:51.815Z,2.39
2022-12-29T04:49:51.767Z,2.33
2022-12-29T04:50:51.799Z,2.28
2022-12-29T04:51:51.745Z,2.24
2022-12-29T04:52:51.759Z,2.22
2022-12-29T04:53:51.709Z,2.18
2022-12-29T04:54:51.738Z,2.20
2022-12-29T04:55:51.695Z,2.29
2022-12-29T04:56:51.687Z,2.36
2022-12-29T04:57:51.662Z,2.42
2022-12-29T04:58:51.681Z,2.42
2022-12-29T04:59:51.652Z,2.39
2022-12-29T05:00:51.635Z,2.35
2022-12-29T05:01:51.766Z,2.32
2022-12-29T05:02:51.881Z,2.32
2022-12-29T05:03:51.645Z,2.28
2022-12-29T05:04:51.581Z,2.26
2022-12-29T05:05:51.558Z,2.28
2022-12-29T05:06:51.584Z,2.28
2022-12-29T05:07:51.551Z,2.28
2022-12-29T05:08:51.534Z,2.28
2022-12-29T05:09:51.514Z,2.24
2022-12-29T05:10:51.504Z,2.24
2022-12-29T05:11:51.536Z,2.18
2022-12-29T05:12:51.509Z,2.15
2022-12-29T05:13:51.479Z,2.18
2022-12-29T05:14:51.443Z,2.22
2022-12-29T05:15:51.524Z,2.25
2022-12-29T05:16:51.448Z,2.24
2022-12-29T05:17:51.437Z,2.25
2022-12-29T05:18:51.391Z,2.26
2022-12-29T05:19:51.430Z,2.26
2022-12-29T05:20:51.371Z,2.22
2022-12-29T05:21:51.369Z,2.18
2022-12-29T05:22:51.374Z,2.15
2022-12-29T05:23:51.345Z,2.14
2022-12-29T05:24:51.329Z,2.17
2022-12-29T05:25:51.306Z,2.17
2022-12-29T05:26:51.284Z,2.28
2022-12-29T05:27:51.326Z,2.47
2022-12-29T05:28:51.275Z,2.51
2022-12-29T05:29:51.253Z,2.46
2022-12-29T05:30:51.259Z,2.43
2022-12-29T05:31:51.332Z,2.56
2022-12-29T05:32:51.225Z,2.82
2022-12-29T05:33:51.199Z,2.97
2022-12-29T05:34:51.175Z,3.25
2022-12-29T05:35:51.195Z,3.48
2022-12-29T05:36:51.155Z,3.74
2022-12-29T05:37:51.174Z,3.91
2022-12-29T05:38:51.178Z,3.99
2022-12-29T05:39:51.115Z,4.06
2022-12-29T05:40:51.140Z,4.14
2022-12-29T05:41:51.095Z,4.28
2022-12-29T05:42:51.107Z,4.32
2022-12-29T05:43:51.068Z,4.26
2022-12-29T05:44:51.071Z,4.14
2022-12-29T05:45:51.066Z,3.94
2022-12-29T05:46:51.143Z,3.81
2022-12-29T05:47:51.003Z,3.60
2022-12-29T05:48:51.033Z,3.47
2022-12-29T05:49:51.024Z,3.29
2022-12-29T05:50:51.018Z,3.18
2022-12-29T05:51:50.964Z,3.11
2022-12-29T05:52:50.970Z,3.13
2022-12-29T05:53:50.949Z,3.19
2022-12-29T05:54:50.930Z,3.25
2022-12-29T05:55:50.909Z,3.32
2022-12-29T05:56:50.930Z,3.40
2022-12-29T05:57:50.938Z,3.41
2022-12-29T05:58:50.878Z,3.34
2022-12-29T05:59:50.854Z,3.26
2022-12-29T06:00:50.854Z,3.29
2022-12-29T06:01:51.120Z,3.36
2022-12-29T06:02:50.902Z,3.29
2022-12-29T06:03:50.960Z,3.23
2022-12-29T06:04:50.779Z,3.13
2022-12-29T06:05:50.792Z,3.01
2022-12-29T06:06:50.781Z,2.90
2022-12-29T06:07:50.756Z,2.85
2022-12-29T06:08:50.755Z,2.85
2022-12-29T06:09:50.740Z,2.89
2022-12-29T06:10:50.743Z,2.93
2022-12-29T06:11:50.698Z,2.92
2022-12-29T06:12:50.705Z,2.93
2022-12-29T06:13:50.680Z,3.03
2022-12-29T06:14:50.715Z,3.10
2022-12-29T06:15:50.654Z,3.29
2022-12-29T06:16:50.716Z,3.44
2022-12-29T06:17:50.655Z,3.50
2022-12-29T06:18:50.604Z,3.50
2022-12-29T06:19:50.593Z,3.45
2022-12-29T06:20:50.566Z,3.40
2022-12-29T06:21:50.570Z,3.34
2022-12-29T06:22:50.579Z,3.44
2022-12-29T06:23:50.565Z,3.45
2022-12-29T06:24:50.540Z,3.42
2022-12-29T06:25:50.541Z,3.36
2022-12-29T06:26:50.525Z,3.32
2022-12-29T06:27:50.537Z,3.32
2022-12-29T06:28:50.493Z,3.32
2022-12-29T06:29:50.468Z,3.37
2022-12-29T06:30:50.482Z,3.45
2022-12-29T06:31:50.564Z,3.47
2022-12-29T06:32:50.415Z,3.48
2022-12-29T06:33:50.490Z,3.50
2022-12-29T06:34:50.378Z,3.55
2022-12-29T06:35:50.386Z,3.58
2022-12-29T06:36:50.422Z,3.62
2022-12-29T06:37:50.377Z,3.65
2022-12-29T06:38:50.385Z,3.70
2022-12-29T06:39:50.344Z,3.74
2022-12-29T06:40:50.314Z,3.80
2022-12-29T06:41:50.339Z,3.87
2022-12-29T06:42:50.288Z,3.87
2022-12-29T06:43:50.284Z,3.84
2022-12-29T06:44:50.260Z,3.77
2022-12-29T06:45:50.275Z,3.69
2022-12-29T06:46:50.274Z,3.66
2022-12-29T06:47:50.227Z,3.59
2022-12-29T06:48:50.202Z,3.55
2022-12-29T06:49:50.204Z,3.51
2022-12-29T06:50:50.230Z,3.47
2022-12-29T06:51:50.179Z,3.41
2022-12-29T06:52:50.152Z,3.40
2022-12-29T06:53:50.189Z,3.37
2022-12-29T06:54:50.135Z,3.36
2022-12-29T06:55:50.124Z,3.34
2022-12-29T06:56:50.145Z,3.28
2022-12-29T06:57:50.123Z,3.25
2022-12-29T06:58:50.075Z,3.22
2022-12-29T06:59:50.085Z,3.18
2022-12-29T07:00:50.107Z,3.11
2022-12-29T07:01:50.213Z,3.11
2022-12-29T07:02:50.177Z,3.07
2022-12-29T07:03:50.026Z,3.01
2022-12-29T07:04:49.999Z,2.98
2022-12-29T07:05:50.009Z,2.95
2022-12-29T07:06:49.970Z,2.90
2022-12-29T07:07:49.986Z,2.90
2022-12-29T07:08:49.968Z,2.89
2022-12-29T07:09:49.938Z,2.89
2022-12-29T07:10:49.927Z,2.89
2022-12-29T07:11:49.923Z,2.87
2022-12-29T07:12:49.922Z,2.86
2022-12-29T07:13:49.935Z,2.82
2022-12-29T07:14:49.880Z,2.80
2022-12-29T07:15:49.857Z,2.82
2022-12-29T07:16:49.911Z,2.79
2022-12-29T07:17:49.873Z,2.80
2022-12-29T07:18:49.837Z,2.79
2022-12-29T07:19:49.812Z,2.79
2022-12-29T07:20:49.791Z,2.80
2022-12-29T07:21:49.782Z,2.80
2022-12-29T07:22:49.760Z,2.82
2022-12-29T07:23:49.787Z,2.83
2022-12-29T07:24:49.733Z,2.85
2022-12-29T07:25:49.745Z,2.85
2022-12-29T07:26:49.732Z,2.89
2022-12-29T07:27:49.761Z,2.89
2022-12-29T07:28:49.690Z,2.89
2022-12-29T07:29:49.751Z,2.92
2022-12-29T07:30:49.717Z,2.93
2022-12-29T07:31:49.675Z,2.95
2022-12-29T07:32:49.629Z,2.97
2022-12-29T07:33:49.637Z,3.01
2022-12-29T07:34:49.635Z,3.04
2022-12-29T07:35:49.603Z,3.04
2022-12-29T07:36:49.583Z,3.07
2022-12-29T07:37:49.590Z,3.07
2022-12-29T07:38:49.583Z,3.08
2022-12-29T07:39:49.583Z,3.11
2022-12-29T07:40:49.530Z,3.18
2022-12-29T07:41:49.515Z,3.23
2022-12-29T07:42:49.500Z,3.29
2022-12-29T07:43:49.563Z,3.31
2022-12-29T07:44:49.595Z,3.34
2022-12-29T07:45:49.530Z,3.40
2022-12-29T07:46:56.195Z,3.47
2022-12-29T07:47:49.451Z,3.55
2022-12-29T07:48:49.435Z,3.59
2022-12-29T07:49:49.450Z,3.66
2022-12-29T07:50:49.426Z,3.76
2022-12-29T07:51:49.432Z,3.84
2022-12-29T07:52:49.375Z,3.86
2022-12-29T07:53:49.441Z,3.84
2022-12-29T07:54:49.350Z,3.80
2022-12-29T07:55:49.347Z,3.78
2022-12-29T07:56:49.358Z,3.81
2022-12-29T07:57:49.305Z,3.83
2022-12-29T07:58:49.292Z,3.94
2022-12-29T07:59:49.381Z,3.96
2022-12-29T08:00:49.264Z,3.98
2022-12-29T08:01:49.474Z,3.96
2022-12-29T08:02:49.310Z,3.98
2022-12-29T08:03:54.006Z,3.99
2022-12-29T08:04:49.226Z,4.10
2022-12-29T08:05:49.215Z,4.28
2022-12-29T08:06:49.189Z,4.32
2022-12-29T08:07:49.195Z,4.30
2022-12-29T08:08:49.194Z,4.19
2022-12-29T08:09:49.172Z,4.12
2022-12-29T08:10:49.130Z,4.02
2022-12-29T08:11:49.128Z,4.14
2022-12-29T08:12:49.132Z,4.38
2022-12-29T08:13:49.120Z,4.53
2022-12-29T08:14:49.102Z,4.55
2022-12-29T08:15:49.123Z,4.59
2022-12-29T08:16:49.061Z,4.70
2022-12-29T08:17:49.051Z,4.84
2022-12-29T08:18:49.061Z,4.94
2022-12-29T08:19:49.047Z,5.08
2022-12-29T08:20:54.079Z,5.15
2022-12-29T08:21:49.004Z,5.29
2022-12-29T08:22:49.014Z,5.36
2022-12-29T08:23:48.977Z,5.39
2022-12-29T08:24:48.955Z,5.43
2022-12-29T08:25:48.953Z,5.44
2022-12-29T08:26:48.934Z,5.47
2022-12-29T08:27:48.929Z,5.46
2022-12-29T08:28:48.919Z,5.39
2022-12-29T08:29:48.916Z,5.21
2022-12-29T08:30:48.955Z,5.17
2022-12-29T08:31:48.864Z,5.15
2022-12-29T08:32:48.847Z,5.14
2022-12-29T08:33:48.856Z,5.15
2022-12-29T08:34:48.822Z,5.14
2022-12-29T08:35:48.814Z,5.12
2022-12-29T08:36:48.817Z,5.26
2022-12-29T08:37:48.792Z,5.35
2022-12-29T08:38:48.772Z,5.41
2022-12-29T08:39:48.783Z,5.47
2022-12-29T08:40:48.773Z,5.46
2022-12-29T08:41:48.772Z,5.47
2022-12-29T08:42:48.753Z,5.48
2022-12-29T08:43:48.764Z,5.46
2022-12-29T08:44:48.751Z,5.46
2022-12-29T08:45:48.677Z,5.57
2022-12-29T08:46:48.714Z,5.62
2022-12-29T08:47:48.709Z,5.62
2022-12-29T08:48:48.650Z,5.64
2022-12-29T08:49:48.637Z,5.64
2022-12-29T08:50:48.606Z,5.57
2022-12-29T08:51:48.607Z,5.54
2022-12-29T08:52:48.604Z,5.56
2022-12-29T08:53:48.592Z,5.64
2022-12-29T08:54:48.614Z,5.66
2022-12-29T08:55:48.549Z,5.75
2022-12-29T08:56:48.531Z,5.83
2022-12-29T08:57:48.539Z,5.83
2022-12-29T08:58:48.498Z,5.80
2022-12-29T08:59:48.498Z,5.72
2022-12-29T09:00:48.504Z,5.69
2022-12-29T09:01:48.733Z,5.80
2022-12-29T09:02:48.663Z,5.80
2022-12-29T09:04:18.656Z,5.72
2022-12-29T09:04:48.543Z,5.72
2022-12-29T09:05:48.416Z,5.82
2022-12-29T09:06:48.393Z,5.83
2022-12-29T09:07:48.429Z,5.83
2022-12-29T09:08:48.434Z,5.87
2022-12-29T09:09:48.376Z,5.93
2022-12-29T09:10:48.344Z,5.98
2022-12-29T09:11:48.336Z,6.08
2022-12-29T09:12:48.324Z,6.12
2022-12-29T09:13:48.353Z,6.16
2022-12-29T09:14:48.288Z,6.09
2022-12-29T09:15:48.326Z,6.05
2022-12-29T09:16:48.280Z,6.12
2022-12-29T09:17:48.273Z,6.16
2022-12-29T09:18:48.237Z,6.28
2022-12-29T09:19:48.247Z,6.36
2022-12-29T09:20:48.238Z,6.31
2022-12-29T09:21:48.214Z,6.33
2022-12-29T09:22:48.207Z,6.30
2022-12-29T09:23:48.213Z,6.27
2022-12-29T09:24:48.164Z,6.27
2022-12-29T09:25:48.174Z,6.28
2022-12-29T09:26:48.137Z,6.20
2022-12-29T09:27:48.128Z,6.12
2022-12-29T09:28:48.128Z,6.04
2022-12-29T09:29:48.104Z,6.01
2022-12-29T09:30:48.114Z,6.02
2022-12-29T09:31:48.150Z,6.07
2022-12-29T09:32:53.447Z,6.11
2022-12-29T09:33:48.054Z,6.12
2022-12-29T09:34:48.065Z,6.14
2022-12-29T09:35:48.025Z,6.12
2022-12-29T09:36:48.018Z,6.14
2022-12-29T09:37:47.985Z,6.14
2022-12-29T09:38:48.016Z,6.17
2022-12-29T09:39:54.096Z,6.20
2022-12-29T09:40:47.999Z,6.14
2022-12-29T09:41:47.935Z,6.09
2022-12-29T09:42:47.931Z,6.09
2022-12-29T09:43:47.903Z,6.19
2022-12-29T09:44:47.915Z,6.27
2022-12-29T09:45:47.900Z,6.36
2022-12-29T09:46:47.956Z,6.51
2022-12-29T09:47:47.852Z,6.72
2022-12-29T09:48:47.848Z,6.78
2022-12-29T09:49:47.819Z,6.99
2022-12-29T09:50:47.878Z,7.07
2022-12-29T09:51:47.838Z,7.23
2022-12-29T09:52:47.798Z,7.38
2022-12-29T09:53:47.778Z,7.51
2022-12-29T09:54:54.954Z,7.73
2022-12-29T09:55:47.755Z,7.97
2022-12-29T09:56:47.767Z,8.20
2022-12-29T09:57:47.736Z,8.48
2022-12-29T09:58:47.751Z,8.81
2022-12-29T09:59:47.691Z,9.10
2022-12-29T10:00:54.591Z,9.28
2022-12-29T10:01:47.949Z,9.37
2022-12-29T10:02:47.890Z,9.41
2022-12-29T10:03:47.671Z,9.43
2022-12-29T10:04:47.641Z,9.61
2022-12-29T10:05:47.613Z,9.80
2022-12-29T10:07:19.751Z,9.94
2022-12-29T10:07:47.615Z,10.07
2022-12-29T10:08:47.587Z,10.16
2022-12-29T10:09:47.552Z,10.28
2022-12-29T10:10:47.588Z,10.42
2022-12-29T10:11:47.534Z,10.54
2022-12-29T10:12:47.538Z,10.67
2022-12-29T10:13:47.559Z,10.79
2022-12-29T10:14:47.526Z,10.81
2022-12-29T10:15:47.510Z,10.81
2022-12-29T10:16:47.516Z,10.79
2022-12-29T10:17:47.477Z,10.82
2022-12-29T10:18:47.546Z,10.89
2022-12-29T10:19:47.427Z,10.90
2022-12-29T10:20:47.458Z,10.99
2022-12-29T10:21:47.409Z,11.07
2022-12-29T10:22:47.409Z,11.11
2022-12-29T10:23:47.402Z,11.14
2022-12-29T10:24:47.389Z,11.23
2022-12-29T10:25:47.365Z,11.40
2022-12-29T10:26:47.352Z,11.60
2022-12-29T10:27:47.318Z,11.78
2022-12-29T10:28:47.314Z,11.97
2022-12-29T10:29:47.313Z,12.03
2022-12-29T10:30:47.316Z,12.10
2022-12-29T10:31:47.328Z,12.02
2022-12-29T10:32:47.274Z,12.00
2022-12-29T10:33:47.262Z,11.88
2022-12-29T10:34:47.237Z,11.91
2022-12-29T10:35:47.219Z,12.06
2022-12-29T10:36:47.238Z,12.24
2022-12-29T10:37:47.203Z,12.37
2022-12-29T10:38:47.183Z,12.45
2022-12-29T10:39:47.157Z,12.46
2022-12-29T10:40:47.157Z,12.61
2022-12-29T10:41:47.151Z,12.73
2022-12-29T10:42:47.137Z,12.70
2022-12-29T10:43:47.116Z,12.67
2022-12-29T10:44:47.117Z,12.60
2022-12-29T10:45:47.144Z,12.37
2022-12-29T10:46:47.100Z,12.28
2022-12-29T10:47:47.051Z,12.35
2022-12-29T10:48:47.043Z,12.36
2022-12-29T10:49:47.037Z,12.47
2022-12-29T10:50:47.021Z,12.53
2022-12-29T10:51:47.015Z,12.43
2022-12-29T10:52:46.999Z,12.32
2022-12-29T10:53:46.996Z,12.42
2022-12-29T10:54:46.975Z,12.45
2022-12-29T10:55:46.978Z,12.39
2022-12-29T10:56:46.974Z,12.45
2022-12-29T10:57:46.944Z,12.58
2022-12-29T10:58:49.683Z,12.73
2022-12-29T10:59:46.916Z,12.86
2022-12-29T11:00:46.919Z,12.91
2022-12-29T11:01:47.083Z,12.90
2022-12-29T11:02:46.943Z,12.79
2022-12-29T11:03:46.898Z,12.72
2022-12-29T11:04:46.863Z,12.61
2022-12-29T11:05:46.813Z,12.49
2022-12-29T11:06:46.802Z,12.40
2022-12-29T11:07:46.821Z,12.13
2022-12-29T11:08:46.788Z,12.07
2022-12-29T11:09:46.768Z,12.17
2022-12-29T11:10:46.752Z,12.24
2022-12-29T11:11:46.756Z,12.18
2022-12-29T11:12:46.744Z,12.20
2022-12-29T11:13:46.704Z,12.18
2022-12-29T11:14:46.708Z,12.04
2022-12-29T11:15:46.700Z,12.03
2022-12-29T11:16:46.718Z,11.97
2022-12-29T11:17:46.672Z,11.83
2022-12-29T11:18:46.676Z,11.83
2022-12-29T11:19:46.622Z,11.68
2022-12-29T11:20:46.620Z,11.57
2022-12-29T11:21:46.633Z,11.44
2022-12-29T11:22:46.591Z,11.35
2022-12-29T11:23:46.594Z,11.22
2022-12-29T11:24:46.568Z,11.22
2022-12-29T11:25:46.573Z,11.22
2022-12-29T11:26:46.537Z,11.22
2022-12-29T11:27:46.515Z,11.26
2022-12-29T11:28:46.538Z,11.25
2022-12-29T11:29:46.482Z,11.19
2022-12-29T11:30:46.475Z,11.19
2022-12-29T11:31:46.583Z,11.22
2022-12-29T11:32:46.486Z,11.19
2022-12-29T11:33:46.441Z,11.18
2022-12-29T11:34:46.437Z,11.18
2022-12-29T11:35:46.409Z,11.19
2022-12-29T11:36:46.433Z,11.12
2022-12-29T11:37:46.380Z,11.04
2022-12-29T11:38:46.388Z,11.04
2022-12-29T11:39:46.353Z,11.04
2022-12-29T11:40:46.347Z,11.10
2022-12-29T11:41:46.347Z,11.14
2022-12-29T11:42:46.325Z,11.17
2022-12-29T11:43:46.333Z,11.30
2022-12-29T11:44:46.300Z,11.33
2022-12-29T11:45:46.326Z,11.36
2022-12-29T11:46:46.312Z,11.36
2022-12-29T11:47:46.242Z,11.36
2022-12-29T11:48:46.267Z,11.36
2022-12-29T11:49:46.226Z,11.30
2022-12-29T11:50:46.220Z,11.22
2022-12-29T11:51:46.242Z,11.10
2022-12-29T11:52:46.191Z,11.00
2022-12-29T11:53:46.199Z,10.94
2022-12-29T11:54:46.159Z,10.90
2022-12-29T11:55:46.139Z,10.87
2022-12-29T11:56:46.129Z,10.89
2022-12-29T11:57:46.109Z,10.84
2022-12-29T11:58:46.142Z,10.84
2022-12-29T11:59:46.082Z,10.86
2022-12-29T12:00:46.095Z,10.78
2022-12-29T12:01:46.150Z,10.72
2022-12-29T12:02:46.090Z,10.64
2022-12-29T12:03:46.223Z,10.57
2022-12-29T12:04:46.033Z,10.51
2022-12-29T12:05:46.011Z,10.44
2022-12-29T12:06:45.991Z,10.42
2022-12-29T12:07:45.968Z,10.44
2022-12-29T12:08:46.001Z,10.40
2022-12-29T12:09:45.975Z,10.38
2022-12-29T12:10:45.947Z,10.44
2022-12-29T12:11:45.919Z,10.48
2022-12-29T12:12:45.926Z,10.54
2022-12-29T12:13:45.982Z,10.53
2022-12-29T12:14:45.914Z,10.46
2022-12-29T12:15:49.121Z,10.40
2022-12-29T12:16:45.932Z,10.34
2022-12-29T12:17:45.873Z,10.31
2022-12-29T12:18:45.842Z,10.26
2022-12-29T12:19:45.845Z,10.31
2022-12-29T12:20:45.820Z,10.31
2022-12-29T12:21:46.307Z,10.35
2022-12-29T12:22:45.792Z,10.35
2022-12-29T12:23:45.786Z,10.34
2022-12-29T12:24:45.766Z,10.37
2022-12-29T12:25:45.769Z,10.38
2022-12-29T12:26:45.734Z,10.34
2022-12-29T12:27:45.712Z,10.34
2022-12-29T12:28:45.717Z,10.33
2022-12-29T12:29:45.712Z,10.34
2022-12-29T12:30:45.714Z,10.38
2022-12-29T12:31:45.672Z,10.44
2022-12-29T12:32:45.660Z,10.53
2022-12-29T12:33:45.647Z,10.60
2022-12-29T12:34:45.673Z,10.71
2022-12-29T12:35:45.615Z,10.76
2022-12-29T12:36:45.615Z,10.84
2022-12-29T12:37:45.582Z,10.93
2022-12-29T12:38:45.618Z,10.96
2022-12-29T12:39:45.581Z,11.00
2022-12-29T12:40:45.582Z,11.00
2022-12-29T12:41:45.539Z,11.00
2022-12-29T12:42:45.521Z,11.00
2022-12-29T12:43:45.516Z,11.00
2022-12-29T12:44:45.495Z,10.94
2022-12-29T12:45:45.506Z,10.86
2022-12-29T12:46:45.556Z,10.81
2022-12-29T12:47:45.485Z,10.81
2022-12-29T12:48:45.442Z,10.81
2022-12-29T12:49:45.433Z,10.86
2022-12-29T12:50:45.446Z,10.87
2022-12-29T12:51:45.429Z,10.84
2022-12-29T12:52:45.412Z,10.81
2022-12-29T12:53:45.370Z,10.76
2022-12-29T12:54:45.355Z,10.71
2022-12-29T12:55:45.366Z,10.67
2022-12-29T12:56:45.342Z,10.61
2022-12-29T12:57:45.332Z,10.56
2022-12-29T12:58:45.316Z,10.46
2022-12-29T12:59:45.291Z,10.46
2022-12-29T13:00:45.275Z,10.35
2022-12-29T13:01:45.457Z,10.25
2022-12-29T13:02:45.528Z,10.23
2022-12-29T13:03:45.256Z,10.20
2022-12-29T13:04:45.271Z,10.23
2022-12-29T13:05:45.238Z,10.28
2022-12-29T13:06:45.196Z,10.34
2022-12-29T13:07:45.195Z,10.35
2022-12-29T13:08:45.172Z,10.38
2022-12-29T13:09:45.175Z,10.38
2022-12-29T13:10:49.927Z,10.42
2022-12-29T13:11:45.148Z,10.44
2022-12-29T13:12:45.114Z,10.48